createdAt,value
2019-05-17T00:00:22.087Z,54.16
2019-05-17T00:02:48.301Z,54.18
2019-05-17T00:05:14.570Z,53.99
2019-05-17T00:07:40.743Z,54.44
2019-05-17T00:10:07.054Z,54.22
2019-05-17T00:12:33.582Z,54.23
2019-05-17T00:14:59.504Z,54.36
2019-05-17T00:17:26.749Z,54.29
2019-05-17T00:19:52.768Z,54.32
2019-05-17T00:22:19.033Z,54.09
2019-05-17T00:24:44.970Z,53.99
2019-05-17T00:27:10.836Z,53.93
2019-05-17T00:29:37.116Z,53.88
2019-05-17T00:32:03.524Z,53.82
2019-05-17T00:34:29.425Z,53.67
2019-05-17T00:36:57.327Z,53.72
2019-05-17T00:39:22.997Z,53.82
2019-05-17T00:41:48.860Z,53.70
2019-05-17T00:44:16.670Z,53.71
2019-05-17T00:46:42.413Z,53.79
2019-05-17T00:49:08.310Z,53.98
2019-05-17T00:51:34.168Z,53.87
2019-05-17T00:54:00.058Z,53.77
2019-05-17T00:56:26.611Z,53.90
2019-05-17T00:58:52.585Z,53.63
2019-05-17T01:01:18.582Z,53.61
2019-05-17T01:03:44.956Z,53.71
2019-05-17T01:06:10.831Z,53.80
2019-05-17T01:08:37.407Z,53.67
2019-05-17T01:11:07.090Z,53.56
2019-05-17T01:13:37.213Z,53.75
2019-05-17T01:16:03.990Z,53.86
2019-05-17T01:18:29.813Z,53.75
2019-05-17T01:20:56.813Z,53.72
2019-05-17T01:23:23.218Z,53.49
2019-05-17T01:25:49.207Z,53.45
2019-05-17T01:28:16.425Z,53.50
2019-05-17T01:30:42.362Z,53.30
2019-05-17T01:33:08.239Z,53.37
2019-05-17T01:35:34.246Z,53.45
2019-05-17T01:38:00.147Z,53.68
2019-05-17T01:40:26.430Z,53.69
2019-05-17T01:42:52.418Z,53.52
2019-05-17T01:45:18.323Z,53.59
2019-05-17T01:47:44.302Z,53.51
2019-05-17T01:50:10.205Z,53.53
2019-05-17T01:52:37.017Z,53.51
2019-05-17T01:55:06.711Z,53.57
2019-05-17T01:57:37.004Z,53.57
2019-05-17T02:00:06.442Z,53.79
2019-05-17T02:02:36.910Z,53.77
2019-05-17T02:05:06.330Z,53.84
2019-05-17T02:07:31.962Z,54.04
2019-05-17T02:09:57.823Z,54.09
2019-05-17T02:12:23.686Z,54.19
2019-05-17T02:14:49.570Z,54.10
2019-05-17T02:17:17.446Z,54.10
2019-05-17T02:19:43.798Z,54.33
2019-05-17T02:22:09.685Z,54.33
2019-05-17T02:24:37.001Z,54.27
2019-05-17T02:27:05.047Z,54.13
2019-05-17T02:29:32.166Z,54.38
2019-05-17T02:31:58.206Z,54.28
2019-05-17T02:34:24.077Z,53.83
2019-05-17T02:36:53.151Z,53.74
2019-05-17T02:39:17.643Z,54.20
2019-05-17T02:41:43.541Z,54.33
2019-05-17T02:44:12.747Z,53.79
2019-05-17T02:46:37.488Z,53.47
2019-05-17T02:49:06.270Z,53.51
2019-05-17T02:51:32.671Z,53.39
2019-05-17T02:53:58.650Z,53.08
2019-05-17T02:56:24.545Z,53.11
2019-05-17T02:58:53.349Z,53.11
2019-05-17T03:01:18.433Z,52.93
2019-05-17T03:03:44.383Z,53.00
2019-05-17T03:06:13.370Z,53.02
2019-05-17T03:08:37.967Z,53.26
2019-05-17T03:11:06.968Z,52.95
2019-05-17T03:13:33.152Z,53.21
2019-05-17T03:15:59.122Z,52.98
2019-05-17T03:18:24.986Z,53.05
2019-05-17T03:20:52.511Z,53.59
2019-05-17T03:23:18.949Z,53.47
2019-05-17T03:25:44.854Z,53.46
2019-05-17T03:28:13.464Z,53.02
2019-05-17T03:30:38.732Z,52.79
2019-05-17T03:33:07.836Z,52.65
2019-05-17T03:35:37.630Z,52.71
2019-05-17T03:38:03.506Z,52.59
2019-05-17T03:40:56.508Z,52.71
2019-05-17T03:42:55.907Z,52.82
2019-05-17T03:45:22.840Z,52.59
2019-05-17T03:47:48.956Z,52.44
2019-05-17T03:50:14.840Z,52.42
2019-05-17T03:52:43.787Z,52.32
2019-05-17T03:55:08.701Z,52.46
2019-05-17T03:57:34.736Z,52.30
2019-05-17T04:00:03.793Z,52.17
2019-05-17T04:02:28.680Z,52.11
2019-05-17T04:04:54.540Z,52.07
2019-05-17T04:07:23.383Z,52.46
2019-05-17T04:09:48.123Z,52.38
2019-05-17T04:12:14.027Z,52.08
2019-05-17T04:14:42.780Z,52.32
2019-05-17T04:17:07.775Z,52.15
2019-05-17T04:19:36.692Z,52.17
2019-05-17T04:22:05.586Z,52.20
2019-05-17T04:24:32.365Z,52.19
2019-05-17T04:26:58.542Z,52.34
2019-05-17T04:29:24.440Z,52.73
2019-05-17T04:31:50.302Z,52.56
2019-05-17T04:34:16.520Z,52.52
2019-05-17T04:36:43.188Z,52.46
2019-05-17T04:39:09.388Z,52.20
2019-05-17T04:41:45.014Z,52.31
2019-05-17T04:44:04.954Z,52.34
2019-05-17T04:46:32.717Z,52.41
2019-05-17T04:48:58.579Z,52.44
2019-05-17T04:51:24.451Z,52.54
2019-05-17T04:53:52.989Z,52.28
2019-05-17T04:56:17.994Z,52.10
2019-05-17T04:58:43.862Z,52.07
2019-05-17T05:01:12.934Z,52.68
2019-05-17T05:03:37.783Z,52.72
2019-05-17T05:06:06.703Z,52.73
2019-05-17T05:08:33.136Z,52.72
2019-05-17T05:10:59.287Z,52.72
2019-05-17T05:13:25.125Z,52.69
2019-05-17T05:15:52.177Z,53.02
2019-05-17T05:18:18.616Z,52.69
2019-05-17T05:20:44.491Z,52.74
2019-05-17T05:23:12.944Z,53.15
2019-05-17T05:25:38.149Z,53.20
2019-05-17T05:28:04.022Z,53.10
2019-05-17T05:30:31.874Z,53.07
2019-05-17T05:32:57.553Z,53.05
2019-05-17T05:35:23.691Z,53.06
2019-05-17T05:37:49.739Z,53.18
2019-05-17T05:40:15.789Z,53.16
2019-05-17T05:42:42.716Z,53.43
2019-05-17T05:45:08.749Z,53.51
2019-05-17T05:47:34.682Z,53.46
2019-05-17T05:50:01.705Z,53.67
2019-05-17T05:52:28.005Z,53.60
2019-05-17T05:54:54.054Z,53.49
2019-05-17T05:57:21.853Z,53.51
2019-05-17T05:59:47.642Z,53.70
2019-05-17T06:02:13.534Z,53.82
2019-05-17T06:04:39.707Z,53.87
2019-05-17T06:07:05.647Z,53.97
2019-05-17T06:09:31.937Z,54.05
2019-05-17T06:11:57.934Z,53.95
2019-05-17T06:14:23.854Z,54.13
2019-05-17T06:16:51.850Z,54.18
2019-05-17T06:19:17.451Z,54.36
2019-05-17T06:21:43.312Z,54.46
2019-05-17T06:24:09.218Z,54.67
2019-05-17T06:26:35.125Z,54.62
2019-05-17T06:29:02.735Z,54.74
2019-05-17T06:31:28.704Z,54.72
2019-05-17T06:33:54.573Z,54.62
2019-05-17T06:36:21.719Z,54.63
2019-05-17T06:38:47.708Z,54.75
2019-05-17T06:41:13.957Z,54.86
2019-05-17T06:43:41.621Z,54.95
2019-05-17T06:46:07.505Z,55.04
2019-05-17T06:48:35.499Z,55.22
2019-05-17T06:51:02.543Z,55.36
2019-05-17T06:53:29.065Z,55.47
2019-05-17T06:55:54.944Z,55.72
2019-05-17T06:58:22.245Z,55.91
2019-05-17T07:00:49.747Z,55.79
2019-05-17T07:03:15.700Z,55.76
2019-05-17T07:05:50.202Z,56.03
2019-05-17T07:08:16.193Z,56.18
2019-05-17T07:10:42.225Z,56.00
2019-05-17T07:13:10.343Z,56.14
2019-05-17T07:15:44.718Z,56.30
2019-05-17T07:18:06.594Z,56.28
2019-05-17T07:20:32.843Z,56.31
2019-05-17T07:23:00.366Z,56.36
2019-05-17T07:25:26.455Z,56.25
2019-05-17T07:27:52.789Z,56.52
2019-05-17T07:30:19.497Z,56.55
2019-05-17T07:32:45.459Z,56.32
2019-05-17T07:35:11.377Z,56.11
2019-05-17T07:37:39.540Z,56.00
2019-05-17T07:40:05.487Z,56.00
2019-05-17T07:42:31.320Z,56.08
2019-05-17T07:44:57.202Z,56.08
2019-05-17T07:47:23.086Z,56.18
2019-05-17T07:49:49.452Z,56.22
2019-05-17T07:52:15.877Z,56.27
2019-05-17T07:54:41.743Z,56.31
2019-05-17T07:57:10.241Z,56.18
2019-05-17T07:59:35.294Z,56.13
2019-05-17T08:02:01.179Z,56.17
2019-05-17T08:04:27.051Z,56.18
2019-05-17T08:06:52.943Z,56.25
2019-05-17T08:09:20.449Z,56.38
2019-05-17T08:11:46.483Z,56.30
2019-05-17T08:14:12.391Z,56.20
2019-05-17T08:16:39.453Z,56.17
2019-05-17T08:19:05.451Z,56.31
2019-05-17T08:21:31.314Z,56.42
2019-05-17T08:23:59.872Z,56.44
2019-05-17T08:26:25.175Z,56.51
2019-05-17T08:28:51.051Z,56.47
2019-05-17T08:31:17.302Z,56.55
2019-05-17T08:33:43.161Z,56.52
2019-05-17T08:36:09.374Z,56.36
2019-05-17T08:38:35.232Z,56.49
2019-05-17T08:41:01.141Z,56.38
2019-05-17T08:43:38.189Z,56.40
2019-05-17T08:45:54.705Z,56.48
2019-05-17T08:48:20.764Z,56.33
2019-05-17T08:50:46.735Z,56.23
2019-05-17T08:53:12.645Z,56.05
2019-05-17T08:55:40.823Z,56.05
2019-05-17T08:58:06.620Z,55.95
2019-05-17T09:00:32.515Z,55.86
2019-05-17T09:03:00.086Z,56.03
2019-05-17T09:05:26.109Z,56.03
2019-05-17T09:07:52.003Z,56.09
2019-05-17T09:10:20.539Z,56.19
2019-05-17T09:12:45.598Z,56.05
2019-05-17T09:15:11.497Z,55.90
2019-05-17T09:17:39.369Z,55.78
2019-05-17T09:20:05.075Z,55.93
2019-05-17T09:22:31.330Z,56.11
2019-05-17T09:24:59.463Z,56.24
2019-05-17T09:27:24.947Z,56.19
2019-05-17T09:29:50.818Z,56.21
2019-05-17T09:32:16.723Z,56.15
2019-05-17T09:34:42.591Z,56.15
2019-05-17T09:37:09.844Z,56.34
2019-05-17T09:39:35.820Z,56.36
2019-05-17T09:42:01.715Z,56.46
2019-05-17T09:44:29.747Z,56.55
2019-05-17T09:46:55.282Z,56.53
2019-05-17T09:49:21.154Z,56.48
2019-05-17T09:51:47.030Z,56.31
2019-05-17T09:54:12.898Z,56.29
2019-05-17T09:56:39.494Z,56.39
2019-05-17T09:59:05.777Z,56.45
2019-05-17T10:01:31.651Z,56.51
2019-05-17T10:03:59.718Z,56.58
2019-05-17T10:06:25.467Z,56.63
2019-05-17T10:08:51.456Z,56.72
2019-05-17T10:11:17.319Z,56.39
2019-05-17T10:13:43.191Z,56.52
2019-05-17T10:16:10.116Z,56.54
2019-05-17T10:18:36.158Z,56.52
2019-05-17T10:21:02.025Z,56.52
2019-05-17T10:23:29.932Z,56.62
2019-05-17T10:25:55.570Z,56.59
2019-05-17T10:28:21.753Z,56.64
2019-05-17T10:30:51.902Z,56.74
2019-05-17T10:33:15.320Z,56.60
2019-05-17T10:35:41.604Z,56.64
2019-05-17T10:38:10.033Z,56.70
2019-05-17T10:40:35.181Z,56.64
2019-05-17T10:43:01.090Z,56.68
2019-05-17T10:45:27.280Z,56.80
2019-05-17T10:47:53.175Z,56.78
2019-05-17T10:50:20.566Z,56.74
2019-05-17T10:52:46.718Z,56.75
2019-05-17T10:55:12.583Z,56.64
2019-05-17T10:57:38.460Z,56.66
2019-05-17T11:00:05.139Z,56.76
2019-05-17T11:02:31.024Z,56.77
2019-05-17T11:04:56.894Z,56.73
2019-05-17T11:07:22.787Z,56.70
2019-05-17T11:09:50.926Z,56.77
2019-05-17T11:12:16.694Z,56.72
2019-05-17T11:14:52.170Z,56.80
2019-05-17T11:17:10.281Z,56.74
2019-05-17T11:19:36.174Z,56.71
2019-05-17T11:22:02.068Z,56.68
2019-05-17T11:24:27.978Z,56.77
2019-05-17T11:26:53.972Z,56.74
2019-05-17T11:29:19.869Z,56.77
2019-05-17T11:31:46.068Z,56.74
2019-05-17T11:34:12.312Z,56.78
2019-05-17T11:36:38.179Z,56.75
2019-05-17T11:39:04.888Z,56.80
2019-05-17T11:41:30.762Z,56.78
2019-05-17T11:43:56.671Z,56.79
2019-05-17T11:46:35.336Z,56.85
2019-05-17T11:48:50.358Z,56.83
2019-05-17T11:51:16.226Z,56.83
2019-05-17T11:53:42.133Z,56.88
2019-05-17T11:56:08.000Z,56.86
2019-05-17T11:58:33.878Z,56.87
2019-05-17T12:00:59.767Z,56.85
2019-05-17T12:03:25.648Z,56.85
2019-05-17T12:05:51.521Z,56.90
2019-05-17T12:08:17.406Z,56.85
2019-05-17T12:10:43.373Z,56.87
2019-05-17T12:13:09.278Z,56.93
2019-05-17T12:15:44.261Z,56.98
2019-05-17T12:18:05.618Z,56.93
2019-05-17T12:20:31.509Z,56.89
2019-05-17T12:22:57.386Z,56.88
2019-05-17T12:25:23.296Z,56.90
2019-05-17T12:27:49.193Z,56.89
2019-05-17T12:30:15.106Z,56.93
2019-05-17T12:32:41.252Z,56.95
2019-05-17T12:35:07.453Z,56.85
2019-05-17T12:37:35.531Z,56.81
2019-05-17T12:40:01.542Z,56.61
2019-05-17T12:42:27.411Z,56.46
2019-05-17T12:44:53.315Z,56.29
2019-05-17T12:47:19.186Z,56.23
2019-05-17T12:49:45.082Z,56.13
2019-05-17T12:52:10.972Z,56.13
2019-05-17T12:54:36.889Z,56.13
2019-05-17T12:57:04.848Z,56.26
2019-05-17T12:59:30.521Z,56.23
2019-05-17T13:01:56.407Z,56.26
2019-05-17T13:04:22.289Z,56.36
2019-05-17T13:06:48.166Z,56.29
2019-05-17T13:09:14.036Z,56.29
2019-05-17T13:11:39.918Z,56.36
2019-05-17T13:14:05.781Z,56.38
2019-05-17T13:16:31.656Z,56.48
2019-05-17T13:18:57.555Z,56.48
2019-05-17T13:21:23.416Z,56.49
2019-05-17T13:23:49.278Z,56.57
2019-05-17T13:26:15.160Z,56.53
2019-05-17T13:28:41.022Z,56.53
2019-05-17T13:31:07.202Z,56.58
2019-05-17T13:33:35.527Z,56.56
2019-05-17T13:36:01.401Z,56.65
2019-05-17T13:38:27.553Z,56.67
2019-05-17T13:40:53.419Z,56.71
2019-05-17T13:43:19.322Z,56.75
2019-05-17T13:45:45.288Z,56.76
2019-05-17T13:48:11.275Z,56.72
2019-05-17T13:50:37.168Z,56.75
2019-05-17T13:53:05.052Z,56.79
2019-05-17T13:55:30.943Z,56.76
2019-05-17T13:57:56.812Z,56.77
2019-05-17T14:00:22.695Z,56.75
2019-05-17T14:02:48.579Z,56.88
2019-05-17T14:05:14.497Z,56.98
2019-05-17T14:07:40.364Z,56.98
2019-05-17T14:10:06.247Z,57.03
2019-05-17T14:12:32.143Z,57.16
2019-05-17T14:14:58.025Z,57.13
2019-05-17T14:17:23.917Z,57.13
2019-05-17T14:19:49.827Z,57.21
2019-05-17T14:22:15.833Z,57.20
2019-05-17T14:24:42.007Z,57.26
2019-05-17T14:27:08.070Z,57.29
2019-05-17T14:29:33.979Z,57.27
2019-05-17T14:31:59.875Z,57.30
2019-05-17T14:34:25.762Z,57.32
2019-05-17T14:36:51.678Z,57.31
2019-05-17T14:39:18.058Z,57.34
2019-05-17T14:41:44.108Z,57.39
2019-05-17T14:44:10.060Z,57.52
2019-05-17T14:46:36.103Z,57.54
2019-05-17T14:49:02.069Z,57.55
2019-05-17T14:51:28.038Z,57.54
2019-05-17T14:53:53.895Z,57.72
2019-05-17T14:56:20.060Z,57.78
2019-05-17T14:58:45.930Z,57.73
2019-05-17T15:01:12.146Z,57.70
2019-05-17T15:03:38.043Z,57.71
2019-05-17T15:06:03.931Z,57.76
2019-05-17T15:08:29.796Z,57.77
2019-05-17T15:10:55.685Z,57.75
2019-05-17T15:13:21.586Z,57.81
2019-05-17T15:15:47.884Z,57.79
2019-05-17T15:18:13.828Z,57.80
2019-05-17T15:20:40.039Z,57.79
2019-05-17T15:23:05.909Z,57.76
2019-05-17T15:25:31.835Z,57.83
2019-05-17T15:27:57.980Z,57.87
2019-05-17T15:30:23.870Z,57.88
2019-05-17T15:32:49.733Z,57.76
2019-05-17T15:35:15.605Z,57.90
2019-05-17T15:37:41.870Z,57.80
2019-05-17T15:40:08.018Z,57.88
2019-05-17T15:42:43.643Z,57.81
2019-05-17T15:45:01.717Z,57.84
2019-05-17T15:47:27.744Z,57.86
2019-05-17T15:49:53.623Z,57.94
2019-05-17T15:52:19.485Z,57.93
2019-05-17T15:54:48.483Z,57.80
2019-05-17T15:57:13.047Z,57.80
2019-05-17T15:59:38.913Z,57.74
2019-05-17T16:02:04.961Z,57.71
2019-05-17T16:04:30.845Z,57.68
2019-05-17T16:06:56.734Z,57.62
2019-05-17T16:09:22.678Z,57.69
2019-05-17T16:11:48.821Z,57.67
2019-05-17T16:14:14.721Z,57.68
2019-05-17T16:16:40.628Z,57.68
2019-05-17T16:19:06.534Z,57.73
2019-05-17T16:21:32.392Z,57.67
2019-05-17T16:23:58.299Z,57.67
2019-05-17T16:26:24.167Z,57.77
2019-05-17T16:28:50.073Z,57.70
2019-05-17T16:31:15.959Z,57.71
2019-05-17T16:33:41.852Z,57.71
2019-05-17T16:36:07.752Z,57.79
2019-05-17T16:38:36.744Z,57.80
2019-05-17T16:41:02.629Z,57.90
2019-05-17T16:43:28.546Z,57.88
2019-05-17T16:45:54.800Z,57.93
2019-05-17T16:48:20.699Z,57.90
2019-05-17T16:50:46.563Z,57.83
2019-05-17T16:53:12.510Z,57.83
2019-05-17T16:55:38.364Z,57.73
2019-05-17T16:58:04.264Z,57.82
2019-05-17T17:00:34.466Z,57.81
2019-05-17T17:03:00.813Z,57.79
2019-05-17T17:05:26.696Z,57.79
2019-05-17T17:07:52.610Z,57.72
2019-05-17T17:10:18.496Z,57.77
2019-05-17T17:12:44.449Z,57.83
2019-05-17T17:15:10.396Z,57.91
2019-05-17T17:17:36.753Z,57.92
2019-05-17T17:20:04.055Z,58.00
2019-05-17T17:22:30.077Z,57.90
2019-05-17T17:24:56.127Z,57.94
2019-05-17T17:27:22.178Z,58.00
2019-05-17T17:29:48.226Z,57.96
2019-05-17T17:32:21.588Z,58.10
2019-05-17T17:34:41.980Z,58.09
2019-05-17T17:37:08.268Z,58.13
2019-05-17T17:39:34.288Z,58.08
2019-05-17T17:42:00.649Z,58.03
2019-05-17T17:44:27.006Z,58.15
2019-05-17T17:46:53.055Z,58.19
2019-05-17T17:49:19.020Z,58.18
2019-05-17T17:51:45.070Z,58.20
2019-05-17T17:54:11.139Z,58.18
2019-05-17T17:56:37.182Z,58.01
2019-05-17T17:59:05.811Z,57.85
2019-05-17T18:01:31.849Z,57.69
2019-05-17T18:03:57.913Z,57.65
2019-05-17T18:06:24.015Z,57.65
2019-05-17T18:08:50.009Z,57.71
2019-05-17T18:11:16.066Z,57.74
2019-05-17T18:13:42.129Z,57.76
2019-05-17T18:16:08.190Z,57.94
2019-05-17T18:18:34.241Z,58.01
2019-05-17T18:21:00.288Z,58.11
2019-05-17T18:23:26.339Z,57.96
2019-05-17T18:25:52.386Z,57.88
2019-05-17T18:28:18.441Z,57.96
2019-05-17T18:30:44.517Z,58.13
2019-05-17T18:33:10.561Z,58.25
2019-05-17T18:35:36.612Z,58.26
2019-05-17T18:38:02.660Z,58.34
2019-05-17T18:40:28.725Z,58.45
2019-05-17T18:42:54.771Z,58.44
2019-05-17T18:45:20.728Z,58.42
2019-05-17T18:47:50.091Z,58.52
2019-05-17T18:50:14.783Z,58.63
2019-05-17T18:52:40.842Z,58.64
2019-05-17T18:55:06.826Z,58.62
2019-05-17T18:57:35.188Z,58.72
2019-05-17T19:00:01.163Z,58.78
2019-05-17T19:02:27.228Z,58.76
2019-05-17T19:04:53.181Z,58.68
2019-05-17T19:07:19.138Z,58.75
2019-05-17T19:09:45.184Z,58.75
2019-05-17T19:12:11.143Z,58.75
2019-05-17T19:14:42.865Z,58.85
2019-05-17T19:17:04.891Z,59.01
2019-05-17T19:19:30.840Z,58.88
2019-05-17T19:21:57.312Z,58.86
2019-05-17T19:24:23.293Z,58.85
2019-05-17T19:26:49.336Z,58.96
2019-05-17T19:29:15.395Z,58.92
2019-05-17T19:31:41.454Z,58.80
2019-05-17T19:34:07.823Z,59.04
2019-05-17T19:36:36.840Z,58.98
2019-05-17T19:39:04.539Z,59.01
2019-05-17T19:41:30.584Z,58.86
2019-05-17T19:43:56.643Z,58.94
2019-05-17T19:46:23.010Z,58.95
2019-05-17T19:48:49.058Z,59.00
2019-05-17T19:51:15.108Z,58.93
2019-05-17T19:53:41.274Z,59.03
2019-05-17T19:56:07.443Z,59.01
2019-05-17T19:58:35.501Z,59.18
2019-05-17T20:01:01.370Z,59.13
2019-05-17T20:03:27.753Z,59.46
2019-05-17T20:05:53.997Z,59.30
2019-05-17T20:08:19.861Z,59.54
2019-05-17T20:10:45.719Z,59.50
2019-05-17T20:13:11.613Z,59.46
2019-05-17T20:15:37.535Z,59.53
2019-05-17T20:18:06.061Z,59.42
2019-05-17T20:20:31.939Z,59.60
2019-05-17T20:22:57.793Z,59.65
2019-05-17T20:25:23.679Z,59.63
2019-05-17T20:27:49.576Z,59.68
2019-05-17T20:30:15.575Z,59.88
2019-05-17T20:32:41.459Z,59.77
2019-05-17T20:35:07.397Z,59.78
2019-05-17T20:37:33.851Z,59.67
2019-05-17T20:39:59.736Z,59.74
2019-05-17T20:42:25.639Z,59.69
2019-05-17T20:44:51.518Z,59.72
2019-05-17T20:47:17.417Z,59.88
2019-05-17T20:49:43.298Z,59.93
2019-05-17T20:52:09.312Z,59.86
2019-05-17T20:54:35.500Z,59.91
2019-05-17T20:57:01.409Z,59.98
2019-05-17T20:59:27.294Z,59.96
2019-05-17T21:01:53.191Z,59.96
2019-05-17T21:04:19.056Z,59.96
2019-05-17T21:06:44.971Z,60.07
2019-05-17T21:09:10.852Z,60.01
2019-05-17T21:11:36.733Z,59.89
2019-05-17T21:14:02.620Z,59.88
2019-05-17T21:16:28.512Z,59.87
2019-05-17T21:18:54.386Z,59.85
2019-05-17T21:21:20.254Z,59.95
2019-05-17T21:23:46.137Z,60.05
2019-05-17T21:26:12.023Z,59.89
2019-05-17T21:28:37.900Z,60.00
2019-05-17T21:31:08.114Z,60.13
2019-05-17T21:33:34.204Z,60.27
2019-05-17T21:36:00.068Z,60.11
2019-05-17T21:38:25.956Z,60.16
2019-05-17T21:40:51.826Z,60.15
2019-05-17T21:43:18.011Z,60.27
2019-05-17T21:45:44.936Z,60.16
2019-05-17T21:48:10.822Z,60.25
2019-05-17T21:50:36.699Z,60.14
2019-05-17T21:53:02.645Z,60.21
2019-05-17T21:55:29.092Z,60.26
2019-05-17T21:57:54.928Z,60.27
2019-05-17T22:00:24.618Z,60.29
2019-05-17T22:02:50.492Z,60.24
2019-05-17T22:05:16.356Z,60.34
2019-05-17T22:07:42.214Z,60.21
2019-05-17T22:10:08.215Z,60.22
2019-05-17T22:12:34.299Z,60.11
2019-05-17T22:15:00.192Z,60.21
2019-05-17T22:17:26.080Z,60.29
2019-05-17T22:19:51.955Z,60.39
2019-05-17T22:22:17.836Z,60.20
2019-05-17T22:24:43.802Z,60.42
2019-05-17T22:27:09.672Z,60.41
2019-05-17T22:29:35.582Z,60.30
2019-05-17T22:32:01.455Z,60.45
2019-05-17T22:34:27.477Z,60.42
2019-05-17T22:36:53.441Z,60.31
2019-05-17T22:39:19.376Z,60.29
2019-05-17T22:41:45.310Z,60.20
2019-05-17T22:44:11.219Z,60.08
2019-05-17T22:46:37.095Z,60.24
2019-05-17T22:49:04.390Z,60.06
2019-05-17T22:51:30.249Z,60.38
2019-05-17T22:53:56.145Z,60.45
2019-05-17T22:56:22.023Z,60.29
2019-05-17T22:58:47.919Z,60.39
2019-05-17T23:01:13.786Z,60.14
2019-05-17T23:03:39.696Z,60.22
2019-05-17T23:06:05.688Z,60.22
2019-05-17T23:08:31.595Z,59.94
2019-05-17T23:10:57.452Z,60.01
2019-05-17T23:13:23.366Z,60.16
2019-05-17T23:16:02.338Z,60.19
2019-05-17T23:18:31.849Z,60.14
2019-05-17T23:20:57.699Z,59.75
2019-05-17T23:23:23.620Z,59.71
2019-05-17T23:25:49.491Z,59.76
2019-05-17T23:28:15.368Z,60.04
2019-05-17T23:30:41.342Z,59.62
2019-05-17T23:33:07.603Z,59.63
2019-05-17T23:35:35.361Z,59.70
2019-05-17T23:38:01.235Z,59.69
2019-05-17T23:40:27.424Z,59.73
2019-05-17T23:42:53.590Z,59.72
2019-05-17T23:45:19.455Z,59.65
2019-05-17T23:47:45.324Z,59.63
2019-05-17T23:50:11.206Z,59.70
2019-05-17T23:52:37.080Z,59.61
2019-05-17T23:55:04.843Z,59.44
2019-05-17T23:57:30.707Z,59.57
2019-05-17T23:59:56.568Z,59.66
